createdAt,value
2022-11-05T00:00:44.243Z,18.65
2022-11-05T00:03:32.690Z,18.81
2022-11-05T00:06:20.840Z,18.97
2022-11-05T00:09:09.000Z,19.14
2022-11-05T00:12:11.706Z,18.99
2022-11-05T00:15:00.068Z,17.66
2022-11-05T00:17:31.016Z,17.00
2022-11-05T00:20:01.851Z,17.72
2022-11-05T00:22:50.788Z,18.33
2022-11-05T00:25:22.165Z,18.69
2022-11-05T00:27:53.486Z,18.66
2022-11-05T00:30:25.610Z,18.72
2022-11-05T00:33:01.258Z,18.87
2022-11-05T00:35:31.706Z,18.84
2022-11-05T00:38:02.354Z,18.89
2022-11-05T00:40:32.940Z,18.99
2022-11-05T00:43:21.294Z,19.04
2022-11-05T00:45:51.732Z,19.14
2022-11-05T00:48:40.516Z,19.23
2022-11-05T00:51:11.655Z,19.27
2022-11-05T00:53:43.051Z,19.02
2022-11-05T00:56:13.901Z,17.87
2022-11-05T00:58:44.896Z,16.79
2022-11-05T01:01:15.625Z,16.25
2022-11-05T01:03:51.427Z,17.03
2022-11-05T01:06:22.634Z,17.77
2022-11-05T01:08:53.166Z,18.01
2022-11-05T01:11:34.129Z,18.14
2022-11-05T01:14:06.486Z,18.25
2022-11-05T01:16:37.579Z,18.38
2022-11-05T01:19:09.097Z,18.53
2022-11-05T01:21:39.566Z,18.65
2022-11-05T01:24:11.769Z,18.70
2022-11-05T01:26:42.758Z,18.95
2022-11-05T01:29:13.608Z,18.42
2022-11-05T01:31:44.329Z,17.12
2022-11-05T01:34:14.916Z,17.28
2022-11-05T01:36:46.365Z,17.66
2022-11-05T01:39:17.065Z,18.05
2022-11-05T01:41:48.170Z,18.32
2022-11-05T01:44:36.123Z,18.18
2022-11-05T01:47:06.824Z,18.08
2022-11-05T01:49:37.296Z,18.31
2022-11-05T01:52:07.940Z,18.39
2022-11-05T01:54:38.600Z,18.42
2022-11-05T01:57:11.487Z,18.15
2022-11-05T01:59:44.476Z,18.16
2022-11-05T02:02:15.378Z,17.98
2022-11-05T02:04:49.459Z,18.11
2022-11-05T02:07:20.861Z,17.98
2022-11-05T02:09:56.955Z,17.95
2022-11-05T02:12:29.010Z,18.00
2022-11-05T02:15:00.158Z,18.01
2022-11-05T02:17:36.690Z,18.08
2022-11-05T02:20:29.974Z,18.14
2022-11-05T02:23:16.792Z,18.25
2022-11-05T02:25:58.181Z,18.46
2022-11-05T02:28:43.826Z,18.64
2022-11-05T02:31:19.077Z,18.71
2022-11-05T02:33:56.884Z,18.81
2022-11-05T02:36:33.891Z,18.52
2022-11-05T02:39:08.723Z,17.44
2022-11-05T02:41:44.891Z,16.40
2022-11-05T02:44:20.303Z,16.89
2022-11-05T02:46:55.634Z,17.58
2022-11-05T02:49:33.691Z,18.15
2022-11-05T02:52:06.048Z,17.50
2022-11-05T02:54:38.204Z,15.87
2022-11-05T02:57:08.892Z,16.73
2022-11-05T02:59:39.626Z,16.37
2022-11-05T03:02:11.357Z,16.66
2022-11-05T03:04:42.374Z,16.95
2022-11-05T03:07:22.366Z,16.91
2022-11-05T03:10:01.471Z,17.06
2022-11-05T03:12:41.166Z,17.54
2022-11-05T03:15:18.658Z,16.06
2022-11-05T03:17:54.538Z,15.86
2022-11-05T03:20:27.153Z,16.34
2022-11-05T03:23:04.883Z,16.21
2022-11-05T03:25:38.395Z,16.93
2022-11-05T03:28:09.939Z,15.44
2022-11-05T03:30:41.398Z,15.02
2022-11-05T03:33:14.523Z,15.55
2022-11-05T03:35:47.642Z,15.91
2022-11-05T03:38:20.257Z,16.63
2022-11-05T03:40:52.890Z,15.86
2022-11-05T03:43:24.126Z,14.68
2022-11-05T03:45:57.635Z,15.31
2022-11-05T03:48:26.465Z,16.18
2022-11-05T03:51:00.714Z,14.93
2022-11-05T03:53:33.348Z,14.88
2022-11-05T03:56:06.665Z,15.23
2022-11-05T03:58:37.618Z,16.09
2022-11-05T04:01:08.807Z,15.25
2022-11-05T04:03:39.362Z,14.15
2022-11-05T04:06:28.920Z,14.73
2022-11-05T04:09:17.051Z,15.77
2022-11-05T04:12:05.304Z,16.31
2022-11-05T04:14:35.714Z,14.54
2022-11-05T04:17:10.849Z,14.38
2022-11-05T04:19:59.610Z,15.24
2022-11-05T04:22:49.381Z,15.75
2022-11-05T04:25:20.254Z,14.37
2022-11-05T04:27:51.193Z,13.49
2022-11-05T04:30:22.857Z,14.17
2022-11-05T04:33:00.449Z,15.31
2022-11-05T04:35:31.635Z,15.97
2022-11-05T04:38:03.149Z,14.47
2022-11-05T04:40:34.235Z,13.94
2022-11-05T04:43:09.353Z,15.36
2022-11-05T04:45:44.539Z,15.55
2022-11-05T04:48:20.054Z,14.78
2022-11-05T04:50:54.872Z,14.02
2022-11-05T04:53:29.821Z,14.67
2022-11-05T04:56:11.369Z,15.38
2022-11-05T04:58:42.502Z,15.68
2022-11-05T05:01:14.623Z,14.39
2022-11-05T05:03:45.367Z,14.34
2022-11-05T05:06:20.388Z,15.42
2022-11-05T05:08:54.202Z,14.49
2022-11-05T05:11:26.219Z,14.06
2022-11-05T05:13:57.197Z,14.95
2022-11-05T05:16:28.169Z,15.63
2022-11-05T05:18:59.392Z,14.60
2022-11-05T05:21:42.910Z,13.90
2022-11-05T05:24:12.009Z,14.64
2022-11-05T05:26:49.663Z,15.39
2022-11-05T05:29:21.202Z,15.15
2022-11-05T05:31:52.105Z,14.18
2022-11-05T05:34:23.958Z,14.97
2022-11-05T05:36:55.035Z,14.95
2022-11-05T05:39:31.081Z,13.85
2022-11-05T05:42:06.902Z,14.65
2022-11-05T05:44:37.739Z,15.35
2022-11-05T05:47:08.190Z,15.34
2022-11-05T05:49:42.125Z,15.25
2022-11-05T05:52:14.494Z,14.10
2022-11-05T05:54:46.110Z,14.20
2022-11-05T05:57:16.518Z,14.34
2022-11-05T05:59:47.663Z,15.15
2022-11-05T06:02:19.014Z,16.17
2022-11-05T06:04:50.143Z,14.72
2022-11-05T06:07:20.989Z,14.39
2022-11-05T06:09:53.047Z,15.30
2022-11-05T06:12:24.298Z,14.95
2022-11-05T06:15:05.054Z,15.19
2022-11-05T06:17:36.391Z,15.58
2022-11-05T06:20:09.944Z,15.80
2022-11-05T06:22:40.883Z,14.39
2022-11-05T06:25:12.234Z,15.10
2022-11-05T06:27:43.304Z,15.34
2022-11-05T06:30:14.445Z,15.38
2022-11-05T06:32:45.414Z,16.07
2022-11-05T06:35:15.792Z,16.07
2022-11-05T06:37:46.685Z,14.38
2022-11-05T06:40:17.235Z,14.43
2022-11-05T06:42:54.388Z,15.55
2022-11-05T06:45:29.325Z,15.36
2022-11-05T06:48:04.957Z,14.98
2022-11-05T06:50:35.702Z,15.71
2022-11-05T06:53:06.414Z,16.19
2022-11-05T06:55:37.075Z,16.39
2022-11-05T06:58:07.936Z,15.95
2022-11-05T07:00:43.108Z,15.28
2022-11-05T07:03:19.017Z,15.33
2022-11-05T07:05:50.598Z,16.24
2022-11-05T07:08:21.469Z,16.40
2022-11-05T07:10:52.254Z,16.42
2022-11-05T07:13:23.097Z,14.96
2022-11-05T07:15:58.761Z,14.98
2022-11-05T07:18:34.457Z,15.61
2022-11-05T07:21:05.392Z,15.84
2022-11-05T07:23:36.103Z,15.31
2022-11-05T07:26:06.961Z,15.70
2022-11-05T07:28:41.831Z,15.45
2022-11-05T07:31:17.037Z,15.82
2022-11-05T07:33:48.055Z,15.88
2022-11-05T07:36:18.443Z,16.37
2022-11-05T07:38:49.900Z,16.51
2022-11-05T07:41:20.390Z,16.13
2022-11-05T07:43:51.178Z,15.87
2022-11-05T07:46:21.826Z,15.80
2022-11-05T07:48:52.671Z,16.33
2022-11-05T07:51:23.246Z,16.06
2022-11-05T07:53:54.145Z,15.62
2022-11-05T07:56:24.930Z,15.87
2022-11-05T07:58:55.586Z,15.98
2022-11-05T08:01:26.170Z,16.23
2022-11-05T08:03:57.082Z,16.22
2022-11-05T08:06:27.507Z,16.19
2022-11-05T08:09:02.427Z,15.87
2022-11-05T08:11:37.062Z,15.85
2022-11-05T08:14:08.024Z,15.73
2022-11-05T08:16:38.427Z,15.53
2022-11-05T08:19:09.258Z,16.12
2022-11-05T08:21:39.698Z,16.04
2022-11-05T08:24:10.923Z,16.09
2022-11-05T08:26:41.598Z,15.68
2022-11-05T08:29:12.264Z,16.00
2022-11-05T08:31:43.024Z,15.87
2022-11-05T08:34:13.766Z,15.76
2022-11-05T08:36:46.814Z,15.91
2022-11-05T08:39:18.739Z,16.22
2022-11-05T08:41:49.542Z,16.18
2022-11-05T08:44:20.074Z,16.26
2022-11-05T08:46:50.847Z,15.90
2022-11-05T08:49:22.060Z,15.92
2022-11-05T08:51:52.723Z,16.44
2022-11-05T08:54:23.279Z,15.93
2022-11-05T08:56:54.041Z,16.15
2022-11-05T08:59:24.974Z,16.17
2022-11-05T09:02:00.456Z,16.42
2022-11-05T09:04:40.983Z,15.88
2022-11-05T09:07:16.158Z,15.73
2022-11-05T09:09:50.998Z,15.30
2022-11-05T09:12:26.322Z,14.82
2022-11-05T09:14:56.826Z,15.29
2022-11-05T09:17:28.146Z,15.73
2022-11-05T09:20:03.605Z,16.15
2022-11-05T09:22:37.858Z,15.06
2022-11-05T09:25:11.647Z,14.74
2022-11-05T09:27:43.565Z,15.32
2022-11-05T09:30:14.685Z,16.40
2022-11-05T09:32:50.237Z,15.83
2022-11-05T09:35:20.674Z,15.83
2022-11-05T09:38:00.794Z,15.52
2022-11-05T09:40:33.948Z,15.86
2022-11-05T09:43:09.768Z,16.11
2022-11-05T09:45:40.639Z,16.17
2022-11-05T09:48:15.086Z,15.57
2022-11-05T09:50:54.804Z,15.98
2022-11-05T09:53:37.852Z,15.78
2022-11-05T09:56:15.412Z,15.94
2022-11-05T09:58:48.725Z,15.46
2022-11-05T10:01:21.437Z,15.93
2022-11-05T10:03:53.993Z,16.22
2022-11-05T10:06:33.133Z,15.85
2022-11-05T10:09:06.635Z,15.84
2022-11-05T10:11:39.886Z,15.88
2022-11-05T10:14:21.400Z,16.36
2022-11-05T10:16:53.950Z,16.24
2022-11-05T10:19:26.567Z,15.80
2022-11-05T10:22:07.356Z,16.28
2022-11-05T10:24:40.018Z,16.01
2022-11-05T10:27:12.193Z,15.64
2022-11-05T10:29:48.317Z,15.70
2022-11-05T10:32:29.021Z,15.62
2022-11-05T10:35:05.593Z,16.07
2022-11-05T10:37:42.604Z,15.98
2022-11-05T10:40:17.339Z,15.96
2022-11-05T10:42:59.853Z,16.14
2022-11-05T10:45:34.355Z,16.33
2022-11-05T10:48:15.735Z,15.96
2022-11-05T10:50:46.919Z,15.79
2022-11-05T10:53:18.050Z,15.89
2022-11-05T10:55:49.633Z,16.27
2022-11-05T10:58:23.671Z,16.09
2022-11-05T11:01:08.191Z,16.25
2022-11-05T11:03:41.355Z,16.30
2022-11-05T11:06:24.375Z,16.02
2022-11-05T11:08:56.129Z,16.11
2022-11-05T11:11:31.897Z,16.06
2022-11-05T11:14:03.472Z,15.87
2022-11-05T11:16:38.670Z,16.49
2022-11-05T11:19:23.088Z,16.28
2022-11-05T11:22:12.649Z,15.64
2022-11-05T11:24:44.533Z,16.21
2022-11-05T11:27:16.694Z,16.29
2022-11-05T11:29:49.917Z,16.04
2022-11-05T11:32:22.286Z,15.85
2022-11-05T11:34:54.047Z,16.24
2022-11-05T11:37:26.060Z,16.47
2022-11-05T11:39:58.316Z,16.58
2022-11-05T11:42:30.833Z,16.35
2022-11-05T11:45:05.064Z,16.19
2022-11-05T11:47:36.032Z,15.95
2022-11-05T11:50:07.025Z,16.18
2022-11-05T11:52:38.351Z,16.52
2022-11-05T11:55:28.598Z,16.52
2022-11-05T11:58:06.817Z,16.20
2022-11-05T12:00:38.297Z,16.31
2022-11-05T12:03:16.628Z,16.44
2022-11-05T12:05:49.351Z,16.28
2022-11-05T12:08:27.373Z,16.40
2022-11-05T12:11:00.360Z,16.65
2022-11-05T12:13:48.428Z,16.65
2022-11-05T12:16:23.526Z,16.49
2022-11-05T12:18:58.437Z,16.24
2022-11-05T12:21:51.463Z,16.28
2022-11-05T12:24:29.899Z,16.31
2022-11-05T12:27:06.744Z,15.93
2022-11-05T12:29:41.310Z,15.66
2022-11-05T12:32:38.739Z,16.48
2022-11-05T12:35:13.199Z,16.00
2022-11-05T12:37:50.131Z,16.09
2022-11-05T12:40:26.262Z,15.58
2022-11-05T12:43:01.084Z,16.01
2022-11-05T12:45:37.013Z,16.24
2022-11-05T12:48:13.158Z,16.35
2022-11-05T12:50:45.456Z,16.31
2022-11-05T12:53:28.067Z,16.14
2022-11-05T12:56:00.590Z,16.11
2022-11-05T12:58:33.379Z,16.50
2022-11-05T13:01:06.284Z,16.69
2022-11-05T13:03:41.455Z,16.69
2022-11-05T13:06:13.872Z,16.12
2022-11-05T13:08:46.292Z,16.32
2022-11-05T13:11:21.628Z,16.07
2022-11-05T13:13:59.611Z,16.18
2022-11-05T13:16:31.981Z,16.15
2022-11-05T13:19:04.392Z,15.76
2022-11-05T13:21:44.226Z,15.87
2022-11-05T13:24:17.863Z,16.76
2022-11-05T13:26:51.121Z,16.20
2022-11-05T13:29:24.395Z,16.44
2022-11-05T13:32:02.605Z,16.30
2022-11-05T13:34:37.643Z,16.38
2022-11-05T13:37:26.903Z,16.62
2022-11-05T13:40:18.126Z,16.28
2022-11-05T13:43:08.889Z,16.23
2022-11-05T13:45:52.848Z,16.03
2022-11-05T13:48:37.108Z,16.39
2022-11-05T13:51:18.100Z,15.77
2022-11-05T13:53:59.626Z,15.97
2022-11-05T13:56:43.509Z,15.91
2022-11-05T13:59:30.436Z,15.97
2022-11-05T14:02:02.039Z,16.20
2022-11-05T14:04:34.675Z,16.25
2022-11-05T14:07:12.839Z,16.30
2022-11-05T14:09:44.443Z,16.33
2022-11-05T14:12:21.774Z,16.35
2022-11-05T14:14:58.930Z,15.91
2022-11-05T14:17:36.682Z,16.18
2022-11-05T14:20:25.671Z,16.07
2022-11-05T14:23:20.750Z,16.16
2022-11-05T14:26:04.668Z,16.35
2022-11-05T14:28:43.640Z,15.97
2022-11-05T14:32:07.371Z,16.24
2022-11-05T14:34:48.586Z,16.14
2022-11-05T14:37:30.287Z,16.31
2022-11-05T14:40:01.778Z,16.48
2022-11-05T14:42:38.377Z,16.59
2022-11-05T14:45:25.595Z,16.65
2022-11-05T14:47:58.009Z,16.35
2022-11-05T14:50:37.098Z,16.33
2022-11-05T14:53:11.423Z,16.25
2022-11-05T14:55:43.239Z,15.99
2022-11-05T14:58:31.857Z,16.06
2022-11-05T15:01:02.874Z,16.19
2022-11-05T15:03:47.230Z,16.24
2022-11-05T15:06:26.691Z,16.18
2022-11-05T15:09:19.737Z,15.77
2022-11-05T15:12:09.389Z,16.03
2022-11-05T15:14:42.927Z,16.33
2022-11-05T15:17:19.593Z,16.33
2022-11-05T15:19:50.396Z,16.20
2022-11-05T15:22:30.184Z,16.12
2022-11-05T15:25:04.358Z,16.43
2022-11-05T15:27:49.660Z,16.36
2022-11-05T15:30:23.942Z,16.43
2022-11-05T15:32:54.631Z,16.75
2022-11-05T15:35:30.300Z,16.54
2022-11-05T15:38:19.490Z,16.43
2022-11-05T15:40:57.502Z,16.38
2022-11-05T15:43:28.321Z,15.69
2022-11-05T15:46:06.231Z,15.90
2022-11-05T15:48:37.274Z,16.01
2022-11-05T15:51:08.097Z,16.13
2022-11-05T15:54:24.425Z,16.27
2022-11-05T15:56:49.710Z,16.65
2022-11-05T15:59:21.229Z,16.60
2022-11-05T16:01:53.784Z,16.23
2022-11-05T16:04:26.105Z,16.16
2022-11-05T16:06:58.497Z,16.18
2022-11-05T16:09:30.649Z,16.04
2022-11-05T16:12:26.364Z,16.10
2022-11-05T16:15:01.687Z,15.72
2022-11-05T16:17:34.025Z,15.63
2022-11-05T16:20:20.610Z,15.66
2022-11-05T16:22:52.639Z,15.83
2022-11-05T16:25:25.058Z,15.64
2022-11-05T16:27:56.192Z,15.49
2022-11-05T16:30:26.794Z,15.78
2022-11-05T16:33:03.707Z,15.84
2022-11-05T16:35:34.511Z,15.77
2022-11-05T16:38:06.415Z,15.96
2022-11-05T16:40:36.743Z,15.82
2022-11-05T16:43:16.454Z,15.82
2022-11-05T16:45:46.824Z,15.95
2022-11-05T16:48:22.889Z,15.96
2022-11-05T16:50:53.913Z,15.82
2022-11-05T16:53:29.604Z,15.94
2022-11-05T16:56:01.162Z,15.87
2022-11-05T16:58:31.935Z,15.73
2022-11-05T17:01:08.847Z,15.81
2022-11-05T17:03:39.510Z,15.80
2022-11-05T17:06:15.721Z,15.84
2022-11-05T17:08:54.792Z,15.87
2022-11-05T17:11:38.426Z,15.88
2022-11-05T17:14:14.274Z,15.95
2022-11-05T17:16:54.594Z,16.07
2022-11-05T17:19:25.266Z,16.09
2022-11-05T17:22:00.042Z,16.07
2022-11-05T17:24:35.358Z,15.87
2022-11-05T17:27:09.893Z,16.02
2022-11-05T17:29:41.007Z,16.34
2022-11-05T17:32:11.499Z,16.84
2022-11-05T17:34:47.196Z,16.46
2022-11-05T17:37:18.113Z,16.23
2022-11-05T17:39:53.301Z,16.38
2022-11-05T17:42:24.290Z,16.50
2022-11-05T17:44:54.951Z,16.00
2022-11-05T17:47:26.901Z,15.90
2022-11-05T17:49:57.492Z,15.82
2022-11-05T17:52:33.267Z,15.95
2022-11-05T17:55:04.008Z,16.08
2022-11-05T17:57:38.616Z,16.44
2022-11-05T18:00:11.417Z,16.11
2022-11-05T18:02:41.982Z,16.07
2022-11-05T18:05:13.071Z,16.11
2022-11-05T18:07:43.805Z,16.14
2022-11-05T18:10:16.482Z,16.12
2022-11-05T18:12:47.346Z,15.99
2022-11-05T18:15:22.318Z,16.54
2022-11-05T18:17:52.997Z,16.48
2022-11-05T18:20:28.529Z,16.50
2022-11-05T18:22:59.675Z,16.37
2022-11-05T18:25:30.099Z,16.07
2022-11-05T18:28:04.939Z,16.01
2022-11-05T18:30:39.205Z,15.86
2022-11-05T18:33:09.944Z,15.85
2022-11-05T18:35:45.642Z,15.95
2022-11-05T18:38:25.886Z,15.97
2022-11-05T18:41:06.139Z,16.11
2022-11-05T18:43:41.198Z,16.23
2022-11-05T18:46:43.109Z,16.19
2022-11-05T18:49:07.212Z,16.21
2022-11-05T18:51:42.245Z,16.04
2022-11-05T18:54:13.146Z,16.06
2022-11-05T18:56:46.301Z,16.14
2022-11-05T18:59:39.264Z,16.37
2022-11-05T19:02:12.412Z,16.56
2022-11-05T19:05:00.296Z,16.45
2022-11-05T19:07:36.411Z,16.31
2022-11-05T19:10:08.117Z,16.32
2022-11-05T19:12:39.114Z,16.32
2022-11-05T19:15:14.168Z,16.31
2022-11-05T19:17:45.186Z,16.37
2022-11-05T19:20:19.837Z,16.50
2022-11-05T19:22:54.976Z,15.72
2022-11-05T19:25:25.690Z,14.59
2022-11-05T19:28:02.003Z,15.12
2022-11-05T19:30:32.990Z,15.65
2022-11-05T19:33:03.614Z,15.80
2022-11-05T19:35:39.979Z,15.88
2022-11-05T19:38:11.946Z,15.77
2022-11-05T19:40:42.753Z,15.97
2022-11-05T19:43:13.404Z,16.03
2022-11-05T19:45:45.313Z,16.11
2022-11-05T19:48:19.790Z,16.25
2022-11-05T19:50:50.836Z,16.04
2022-11-05T19:53:21.515Z,16.04
2022-11-05T19:55:52.191Z,16.20
2022-11-05T19:58:22.693Z,16.09
2022-11-05T20:00:56.161Z,16.01
2022-11-05T20:03:27.099Z,16.20
2022-11-05T20:06:02.006Z,16.45
2022-11-05T20:08:33.017Z,16.25
2022-11-05T20:11:04.278Z,16.09
2022-11-05T20:13:34.941Z,16.04
2022-11-05T20:16:06.090Z,16.30
2022-11-05T20:18:41.581Z,16.40
2022-11-05T20:21:12.525Z,16.33
2022-11-05T20:23:43.180Z,16.45
2022-11-05T20:26:19.224Z,16.02
2022-11-05T20:28:50.048Z,16.02
2022-11-05T20:31:21.143Z,15.82
2022-11-05T20:33:51.790Z,16.09
2022-11-05T20:36:24.499Z,15.96
2022-11-05T20:38:56.627Z,15.81
2022-11-05T20:41:27.883Z,16.01
2022-11-05T20:43:58.757Z,16.14
2022-11-05T20:46:29.507Z,16.06
2022-11-05T20:49:00.217Z,15.99
2022-11-05T20:51:30.962Z,15.81
2022-11-05T20:54:02.465Z,15.97
2022-11-05T20:56:34.872Z,16.08
2022-11-05T20:59:06.772Z,15.88
2022-11-05T21:01:37.635Z,15.77
2022-11-05T21:04:08.475Z,15.86
2022-11-05T21:06:39.303Z,16.00
2022-11-05T21:09:09.988Z,15.86
2022-11-05T21:11:58.519Z,15.90
2022-11-05T21:14:29.158Z,16.01
2022-11-05T21:16:59.883Z,16.17
2022-11-05T21:19:31.493Z,16.39
2022-11-05T21:22:02.303Z,16.54
2022-11-05T21:24:37.161Z,16.73
2022-11-05T21:27:12.132Z,15.48
2022-11-05T21:29:42.870Z,14.66
2022-11-05T21:32:14.557Z,14.99
2022-11-05T21:34:45.050Z,15.33
2022-11-05T21:37:15.962Z,15.52
2022-11-05T21:39:46.940Z,15.79
2022-11-05T21:42:17.840Z,15.93
2022-11-05T21:44:48.498Z,16.01
2022-11-05T21:47:19.738Z,16.05
2022-11-05T21:49:50.476Z,16.29
2022-11-05T21:52:43.894Z,16.33
2022-11-05T21:55:31.039Z,16.28
2022-11-05T21:58:20.936Z,16.40
2022-11-05T22:00:55.903Z,15.03
2022-11-05T22:03:35.754Z,14.20
2022-11-05T22:06:10.673Z,14.68
2022-11-05T22:08:45.272Z,15.16
2022-11-05T22:11:24.474Z,15.35
2022-11-05T22:14:04.236Z,15.28
2022-11-05T22:16:43.341Z,15.29
2022-11-05T22:19:14.146Z,15.89
2022-11-05T22:21:44.510Z,16.44
2022-11-05T22:28:58.760Z,14.96
2022-11-05T22:31:34.781Z,15.29
2022-11-05T22:34:07.554Z,15.52
2022-11-05T22:36:38.437Z,15.68
2022-11-05T22:39:12.092Z,15.65
2022-11-05T22:41:43.219Z,15.72
2022-11-05T22:44:14.253Z,15.88
2022-11-05T22:46:44.927Z,15.98
2022-11-05T22:49:15.740Z,15.89
2022-11-05T22:51:46.683Z,16.00
2022-11-05T22:54:17.651Z,16.04
2022-11-05T22:56:50.385Z,16.20
2022-11-05T22:59:21.770Z,16.24
2022-11-05T23:01:52.497Z,16.45
2022-11-05T23:04:23.401Z,16.51
2022-11-05T23:07:11.578Z,16.50
2022-11-05T23:10:00.007Z,16.46
2022-11-05T23:12:31.732Z,16.47
2022-11-05T23:15:05.692Z,16.28
2022-11-05T23:17:56.278Z,16.54
2022-11-05T23:20:44.417Z,16.65
2022-11-05T23:23:32.545Z,15.30
2022-11-05T23:26:23.975Z,14.91
2022-11-05T23:28:54.568Z,15.54
2022-11-05T23:31:57.620Z,15.67
2022-11-05T23:34:29.153Z,15.74
2022-11-05T23:37:18.004Z,16.09
2022-11-05T23:39:48.735Z,16.02
2022-11-05T23:42:37.180Z,15.51
2022-11-05T23:45:26.261Z,15.83
2022-11-05T23:48:15.025Z,16.03
2022-11-05T23:50:47.029Z,15.64
2022-11-05T23:53:17.931Z,15.80
2022-11-05T23:55:48.411Z,16.17
2022-11-05T23:58:19.266Z,16.12
